Delta Virtual Airport Information Service

Philadelphia International Airport

ICAO: KPHL Country: United States
Latitude: 39.8719 Longitude: -75.2411
Latest Arrival : AAL1652 (KORD-KPHL) Latest Departure : AAL1680 (KPHL-KORD)


WX CaptureLIVE
Data provided by noaa.gov | Fetched at 22:48:20

METAR : KPHL 240254Z 17005KT 10SM BKN011 OVC030 18/16 A3006 RMK AO2 SLP179 T01780156 56006

TAF : KPHL 240258Z 2403/2506 20004KT P6SM FEW005 BKN010 FM240400 VRB03KT 6SM BR BKN005 OVC010 FM240700 VRB04KT 4SM BR OVC004 FM241200 25005KT 5SM BR BKN005 FM241400 24005KT P6SM BKN015 FM241700 31009KT P6SM SCT045


Runway Data for KPHL
Data provided by openaviationdata.com

Runway ID Mag Var Hdg Length Elevation Surface ILS Freq ILS Id ILS Slope
8 -10 85° 4993 ft 36 ft Asphalt -- -- --
09L -10 85° 9488 ft 36 ft Concrete 108.95 IVII 3
09R -10 85° 10486 ft 36 ft Asphalt 109.3 IPHL 3
17 -10 169° 6503 ft 36 ft Concrete 108.75 IMYY 3
26 -10 265° 4993 ft 36 ft Asphalt 111.55 ILLH 3
27L -10 265° 10486 ft 36 ft Asphalt 109.3 IGLC 3
27R -10 265° 9488 ft 36 ft Concrete 108.95 IPDP 3
35 -10 349° 6503 ft 36 ft Concrete -- -- --

Philadelphia International Airport, United States
Use only for reference purposes



Not for navigational purposes.